createdAt,value
2023-01-19T00:00:03.221Z,0.73
2023-01-19T00:01:03.321Z,0.7
2023-01-19T00:02:04.812Z,0.56
2023-01-19T00:03:05.863Z,0.64
2023-01-19T00:04:06.115Z,0.59
2023-01-19T00:05:07.083Z,0.51
2023-01-19T00:06:07.505Z,0.45
2023-01-19T00:07:08.378Z,0.47
2023-01-19T00:08:09.117Z,0.37
2023-01-19T00:09:09.333Z,0.37
2023-01-19T00:10:09.634Z,0.42
2023-01-19T00:11:09.900Z,0.45
2023-01-19T00:12:10.564Z,0.44
2023-01-19T00:13:10.819Z,0.45
2023-01-19T00:14:12.069Z,0.4
2023-01-19T00:15:12.000Z,0.47
2023-01-19T00:16:12.682Z,0.49
2023-01-19T00:17:13.470Z,0.45
2023-01-19T00:18:16.007Z,0.36
2023-01-19T00:19:14.584Z,0.34
2023-01-19T00:20:14.781Z,0.33
2023-01-19T00:21:14.728Z,0.36
2023-01-19T00:22:15.664Z,0.31
2023-01-19T00:23:16.566Z,0.4
2023-01-19T00:24:16.845Z,0.36
2023-01-19T00:25:17.035Z,0.36
2023-01-19T00:26:18.232Z,0.31
2023-01-19T00:27:19.258Z,0.26
2023-01-19T00:28:19.529Z,0.33
2023-01-19T00:29:19.752Z,0.24
2023-01-19T00:30:20.294Z,0.26
2023-01-19T00:31:21.356Z,0.37
2023-01-19T00:32:21.029Z,0.45
2023-01-19T00:33:20.686Z,0.4
2023-01-19T00:34:22.198Z,0.4
2023-01-19T00:35:22.684Z,0.26
2023-01-19T00:36:22.586Z,0.3
2023-01-19T00:37:22.805Z,0.27
2023-01-19T00:38:24.297Z,0.44
2023-01-19T00:39:24.507Z,0.4
2023-01-19T00:40:24.730Z,0.39
2023-01-19T00:41:25.644Z,0.29
2023-01-19T00:42:26.564Z,0.33
2023-01-19T00:43:26.794Z,0.42
2023-01-19T00:44:27.319Z,0.42
2023-01-19T00:45:28.158Z,0.37
2023-01-19T00:46:28.555Z,0.31
2023-01-19T00:47:29.143Z,0.27
2023-01-19T00:48:29.888Z,0.24
2023-01-19T00:49:29.802Z,0.29
2023-01-19T00:50:30.288Z,0.31
2023-01-19T00:51:30.900Z,0.27
2023-01-19T00:52:31.555Z,0.29
2023-01-19T00:53:32.286Z,0.16
2023-01-19T00:54:33.412Z,0.18
2023-01-19T00:55:33.629Z,0.19
2023-01-19T00:56:34.264Z,0.11
2023-01-19T00:57:34.924Z,0.11
2023-01-19T00:58:35.175Z,0.16
2023-01-19T00:59:35.397Z,0.11
2023-01-19T01:00:36.328Z,0.13
2023-01-19T01:01:51.163Z,0.13
2023-01-19T01:02:38.163Z,0.12
2023-01-19T01:03:37.995Z,0.06
2023-01-19T01:04:38.188Z,0.15
2023-01-19T01:05:39.112Z,0.15
2023-01-19T01:06:39.023Z,0.11
2023-01-19T01:07:39.451Z,0.15
2023-01-19T01:08:40.389Z,0.2
2023-01-19T01:09:40.364Z,0.24
2023-01-19T01:10:40.297Z,0.23
2023-01-19T01:11:41.492Z,0.19
2023-01-19T01:12:58.200Z,0.24
2023-01-19T01:13:41.576Z,0.3
2023-01-19T01:14:41.823Z,0.31
2023-01-19T01:15:42.301Z,0.27
2023-01-19T01:16:43.418Z,0.31
2023-01-19T01:17:43.834Z,0.27
2023-01-19T01:18:44.564Z,0.33
2023-01-19T01:19:44.755Z,0.29
2023-01-19T01:20:45.229Z,0.26
2023-01-19T01:21:45.167Z,0.19
2023-01-19T01:22:46.360Z,0.23
2023-01-19T01:23:46.615Z,0.23
2023-01-19T01:24:47.240Z,0.19
2023-01-19T01:25:47.715Z,0.2
2023-01-19T01:26:47.917Z,0.15
2023-01-19T01:27:48.673Z,0.16
2023-01-19T01:28:48.931Z,0.19
2023-01-19T01:29:49.489Z,0.24
2023-01-19T01:30:49.433Z,0.18
2023-01-19T01:31:49.783Z,0.15
2023-01-19T01:32:50.319Z,0.13
2023-01-19T01:33:50.729Z,0.12
2023-01-19T01:34:51.073Z,0.08
2023-01-19T01:35:51.707Z,0.01
2023-01-19T01:36:52.903Z,0.05
2023-01-19T01:37:53.317Z,0
2023-01-19T01:38:54.523Z,0.05
2023-01-19T01:39:54.733Z,0
2023-01-19T01:40:56.033Z,0.01
2023-01-19T01:41:59.832Z,0.01
2023-01-19T01:42:56.744Z,0.06
2023-01-19T01:43:57.183Z,0.06
2023-01-19T01:44:57.629Z,-0.03
2023-01-19T01:45:58.275Z,-0.02
2023-01-19T01:46:58.993Z,-0.02
2023-01-19T01:47:58.545Z,0.09
2023-01-19T01:48:59.470Z,-0.02
2023-01-19T01:50:00.145Z,0.08
2023-01-19T01:51:00.359Z,0.05
2023-01-19T01:52:01.280Z,0.05
2023-01-19T01:53:13.518Z,0.02
2023-01-19T01:54:01.751Z,0.11
2023-01-19T01:55:02.255Z,0.06
2023-01-19T01:56:02.162Z,0.13
2023-01-19T01:57:02.884Z,0.18
2023-01-19T01:58:03.882Z,0.15
2023-01-19T01:59:04.204Z,0.23
2023-01-19T02:00:04.727Z,0.19
2023-01-19T02:01:05.564Z,0.2
2023-01-19T02:02:05.960Z,0.19
2023-01-19T02:03:05.803Z,0.23
2023-01-19T02:04:06.508Z,0.24
2023-01-19T02:05:07.155Z,0.19
2023-01-19T02:06:07.779Z,0.23
2023-01-19T02:07:08.983Z,0.26
2023-01-19T02:08:09.005Z,0.19
2023-01-19T02:09:10.233Z,0.23
2023-01-19T02:10:11.143Z,0.16
2023-01-19T02:11:11.500Z,0.19
2023-01-19T02:12:11.846Z,0.16
2023-01-19T02:13:12.746Z,0.19
2023-01-19T02:14:12.783Z,0.19
2023-01-19T02:15:14.099Z,0.16
2023-01-19T02:16:14.068Z,0.19
2023-01-19T02:17:14.458Z,0.18
2023-01-19T02:18:15.185Z,0.23
2023-01-19T02:19:16.104Z,0.19
2023-01-19T02:20:16.921Z,0.19
2023-01-19T02:21:17.548Z,0.2
2023-01-19T02:22:18.757Z,0.2
2023-01-19T02:23:18.971Z,0.19
2023-01-19T02:24:19.593Z,0.19
2023-01-19T02:25:19.795Z,0.24
2023-01-19T02:26:20.741Z,0.23
2023-01-19T02:27:21.980Z,0.23
2023-01-19T02:28:22.311Z,0.26
2023-01-19T02:29:23.532Z,0.24
2023-01-19T02:30:23.863Z,0.27
2023-01-19T02:31:24.181Z,0.19
2023-01-19T02:32:24.712Z,0.26
2023-01-19T02:33:24.430Z,0.23
2023-01-19T02:34:25.911Z,0.19
2023-01-19T02:35:26.133Z,0.19
2023-01-19T02:36:27.064Z,0.2
2023-01-19T02:37:28.003Z,0.19
2023-01-19T02:38:28.752Z,0.19
2023-01-19T02:39:28.980Z,0.23
2023-01-19T02:40:29.498Z,0.16
2023-01-19T02:41:29.991Z,0.15
2023-01-19T02:42:29.964Z,0.11
2023-01-19T02:43:30.627Z,0.15
2023-01-19T02:44:31.583Z,0.12
2023-01-19T02:45:32.597Z,0.11
2023-01-19T02:46:32.593Z,0.05
2023-01-19T02:47:32.547Z,0.06
2023-01-19T02:48:33.597Z,0.08
2023-01-19T02:49:34.531Z,0.06
2023-01-19T02:50:35.097Z,0.02
2023-01-19T02:51:35.090Z,0.06
2023-01-19T02:52:35.725Z,0.01
2023-01-19T02:53:36.212Z,0.09
2023-01-19T02:54:36.129Z,0.05
2023-01-19T02:55:37.045Z,0.06
2023-01-19T02:56:37.686Z,0.01
2023-01-19T02:57:37.866Z,0
2023-01-19T02:58:38.356Z,0.06
2023-01-19T02:59:39.300Z,0.09
2023-01-19T03:00:39.540Z,0.11
2023-01-19T03:01:40.259Z,0.12
2023-01-19T03:02:41.341Z,0.12
2023-01-19T03:03:41.420Z,0.11
2023-01-19T03:04:42.168Z,0.11
2023-01-19T03:05:42.798Z,0.11
2023-01-19T03:06:42.788Z,0.13
2023-01-19T03:07:43.791Z,0.09
2023-01-19T03:08:44.815Z,0.06
2023-01-19T03:09:45.023Z,0.11
2023-01-19T03:10:45.239Z,0.09
2023-01-19T03:11:45.889Z,0.11
2023-01-19T03:12:45.963Z,0.16
2023-01-19T03:13:47.174Z,0.2
2023-01-19T03:14:48.049Z,0.15
2023-01-19T03:15:48.383Z,0.13
2023-01-19T03:16:49.710Z,0.15
2023-01-19T03:17:49.272Z,0.13
2023-01-19T03:18:49.707Z,0.08
2023-01-19T03:19:50.693Z,0.15
2023-01-19T03:20:51.240Z,0.19
2023-01-19T03:21:51.479Z,0.11
2023-01-19T03:22:51.684Z,0.26
2023-01-19T03:23:52.489Z,0.18
2023-01-19T03:24:52.970Z,0.2
2023-01-19T03:25:53.208Z,0.15
2023-01-19T03:26:53.404Z,0.19
2023-01-19T03:27:53.918Z,0.11
2023-01-19T03:28:54.725Z,0.12
2023-01-19T03:29:55.645Z,0.16
2023-01-19T03:30:56.017Z,0.23
2023-01-19T03:31:56.496Z,0.19
2023-01-19T03:32:57.110Z,0.13
2023-01-19T03:33:57.355Z,0.24
2023-01-19T03:34:58.844Z,0.19
2023-01-19T03:35:59.474Z,0.19
2023-01-19T03:36:59.124Z,0.29
2023-01-19T03:38:00.054Z,0.27
2023-01-19T03:39:01.053Z,0.27
2023-01-19T03:40:01.277Z,0.3
2023-01-19T03:41:01.809Z,0.33
2023-01-19T03:42:01.744Z,0.34
2023-01-19T03:43:03.781Z,0.39
2023-01-19T03:44:02.608Z,0.42
2023-01-19T03:45:03.560Z,0.36
2023-01-19T03:46:04.280Z,0.39
2023-01-19T03:47:04.054Z,0.4
2023-01-19T03:48:05.314Z,0.36
2023-01-19T03:49:06.375Z,0.26
2023-01-19T03:50:06.280Z,0.36
2023-01-19T03:51:06.824Z,0.37
2023-01-19T03:52:07.085Z,0.24
2023-01-19T03:53:08.137Z,0.33
2023-01-19T03:54:08.065Z,0.27
2023-01-19T03:55:08.689Z,0.29
2023-01-19T03:56:09.330Z,0.19
2023-01-19T03:57:09.998Z,0.2
2023-01-19T03:58:11.186Z,0.09
2023-01-19T03:59:11.934Z,0.13
2023-01-19T04:00:13.146Z,0.06
2023-01-19T04:01:13.697Z,0.06
2023-01-19T04:02:14.280Z,0
2023-01-19T04:03:15.005Z,0.01
2023-01-19T04:04:15.641Z,-0.02
2023-01-19T04:05:15.577Z,0.05
2023-01-19T04:06:16.247Z,0.01
2023-01-19T04:07:16.927Z,0.01
2023-01-19T04:08:18.131Z,-0.07
2023-01-19T04:09:20.596Z,-0.02
2023-01-19T04:10:18.823Z,-0.06
2023-01-19T04:11:19.468Z,-0.02
2023-01-19T04:12:20.099Z,0.05
2023-01-19T04:13:20.630Z,-0.03
2023-01-19T04:14:20.988Z,-0.05
2023-01-19T04:15:22.196Z,-0.07
2023-01-19T04:16:22.918Z,0.01
2023-01-19T04:17:23.266Z,0
2023-01-19T04:18:23.779Z,0.01
2023-01-19T04:19:24.655Z,-0.02
2023-01-19T04:20:25.577Z,0.06
2023-01-19T04:21:25.790Z,0.01
2023-01-19T04:22:25.421Z,0.02
2023-01-19T04:23:26.616Z,-0.03
2023-01-19T04:24:26.816Z,-0.03
2023-01-19T04:25:27.029Z,0.01
2023-01-19T04:26:28.314Z,-0.03
2023-01-19T04:27:29.295Z,-0.12
2023-01-19T04:28:29.678Z,-0.09
2023-01-19T04:29:29.689Z,-0.1
2023-01-19T04:30:30.640Z,-0.09
2023-01-19T04:31:31.134Z,-0.18
2023-01-19T04:32:31.577Z,0
2023-01-19T04:33:31.851Z,-0.03
2023-01-19T04:34:33.070Z,-0.02
2023-01-19T04:35:33.561Z,-0.1
2023-01-19T04:36:33.492Z,-0.02
2023-01-19T04:37:33.976Z,-0.02
2023-01-19T04:38:34.595Z,-0.06
2023-01-19T04:39:35.166Z,0
2023-01-19T04:40:34.791Z,0.05
2023-01-19T04:41:36.894Z,-0.03
2023-01-19T04:42:36.286Z,-0.05
2023-01-19T04:43:37.202Z,0.01
2023-01-19T04:44:37.684Z,0.01
2023-01-19T04:45:37.908Z,0.05
2023-01-19T04:46:37.987Z,-0.06
2023-01-19T04:47:38.048Z,0.01
2023-01-19T04:48:42.275Z,-0.02
2023-01-19T04:49:39.509Z,0
2023-01-19T04:50:40.906Z,-0.05
2023-01-19T04:51:41.412Z,-0.05
2023-01-19T04:52:41.986Z,-0.07
2023-01-19T04:53:42.635Z,-0.03
2023-01-19T04:54:43.410Z,0
2023-01-19T04:55:43.610Z,0.02
2023-01-19T04:56:44.550Z,-0.06
2023-01-19T04:57:45.170Z,0.05
2023-01-19T04:58:45.357Z,-0.03
2023-01-19T04:59:46.768Z,-0.07
2023-01-19T05:00:46.742Z,0.01
2023-01-19T05:01:47.345Z,-0.05
2023-01-19T05:02:47.863Z,-0.07
2023-01-19T05:03:47.989Z,0
2023-01-19T05:04:49.193Z,0.05
2023-01-19T05:05:49.555Z,-0.06
2023-01-19T05:06:49.778Z,-0.07
2023-01-19T05:07:50.686Z,0.05
2023-01-19T05:08:51.629Z,-0.03
2023-01-19T05:09:51.258Z,0.08
2023-01-19T05:10:52.483Z,-0.09
2023-01-19T05:11:53.433Z,-0.06
2023-01-19T05:12:54.705Z,-0.06
2023-01-19T05:13:56.660Z,-0.06
2023-01-19T05:14:55.867Z,-0.09
2023-01-19T05:15:57.199Z,-0.03
2023-01-19T05:16:57.556Z,-0.05
2023-01-19T05:17:57.513Z,-0.12
2023-01-19T05:18:57.771Z,-0.15
2023-01-19T05:19:58.847Z,-0.18
2023-01-19T05:20:58.493Z,-0.07
2023-01-19T05:21:59.137Z,-0.12
2023-01-19T05:23:00.617Z,-0.17
2023-01-19T05:24:00.367Z,-0.18
2023-01-19T05:25:01.287Z,-0.12
2023-01-19T05:26:02.414Z,-0.1
2023-01-19T05:27:02.718Z,-0.15
2023-01-19T05:28:02.641Z,-0.09
2023-01-19T05:29:03.202Z,-0.24
2023-01-19T05:30:03.565Z,-0.1
2023-01-19T05:31:04.911Z,-0.2
2023-01-19T05:32:05.629Z,-0.2
2023-01-19T05:33:06.385Z,-0.12
2023-01-19T05:34:06.931Z,-0.17
2023-01-19T05:35:06.886Z,-0.2
2023-01-19T05:36:07.872Z,-0.26
2023-01-19T05:37:07.513Z,-0.2
2023-01-19T05:38:08.417Z,-0.23
2023-01-19T05:39:09.783Z,-0.21
2023-01-19T05:40:10.483Z,-0.12
2023-01-19T05:41:11.676Z,-0.17
2023-01-19T05:42:11.875Z,-0.23
2023-01-19T05:43:12.799Z,-0.24
2023-01-19T05:44:13.038Z,-0.23
2023-01-19T05:45:13.655Z,-0.18
2023-01-19T05:46:14.955Z,-0.15
2023-01-19T05:47:15.642Z,-0.15
2023-01-19T05:48:16.331Z,-0.2
2023-01-19T05:49:16.587Z,-0.24
2023-01-19T05:50:16.906Z,-0.13
2023-01-19T05:51:17.397Z,-0.17
2023-01-19T05:52:17.590Z,-0.13
2023-01-19T05:53:18.217Z,-0.2
2023-01-19T05:54:19.149Z,-0.1
2023-01-19T05:55:21.479Z,-0.15
2023-01-19T05:56:21.397Z,-0.12
2023-01-19T05:57:22.331Z,-0.13
2023-01-19T05:58:22.267Z,-0.13
2023-01-19T05:59:23.182Z,-0.13
2023-01-19T06:00:24.194Z,-0.1
2023-01-19T06:01:24.848Z,-0.05
2023-01-19T06:02:25.854Z,-0.13
2023-01-19T06:03:26.500Z,-0.09
2023-01-19T06:04:27.125Z,-0.1
2023-01-19T06:05:28.067Z,-0.1
2023-01-19T06:06:29.437Z,-0.07
2023-01-19T06:07:30.525Z,-0.03
2023-01-19T06:08:29.883Z,-0.06
2023-01-19T06:09:31.079Z,-0.03
2023-01-19T06:10:31.881Z,-0.03
2023-01-19T06:11:31.997Z,-0.03
2023-01-19T06:12:31.911Z,-0.15
2023-01-19T06:13:32.807Z,0.01
2023-01-19T06:14:33.453Z,-0.06
2023-01-19T06:15:34.387Z,0
2023-01-19T06:16:34.564Z,-0.06
2023-01-19T06:17:35.185Z,-0.05
2023-01-19T06:18:36.155Z,-0.12
2023-01-19T06:19:36.855Z,-0.1
2023-01-19T06:20:37.570Z,-0.03
2023-01-19T06:21:38.202Z,-0.1
2023-01-19T06:22:39.845Z,-0.1
2023-01-19T06:23:40.400Z,-0.02
2023-01-19T06:24:40.886Z,-0.1
2023-01-19T06:25:41.089Z,-0.13
2023-01-19T06:26:41.012Z,-0.12
2023-01-19T06:27:41.854Z,-0.1
2023-01-19T06:28:42.338Z,-0.17
2023-01-19T06:29:42.870Z,-0.06
2023-01-19T06:30:43.861Z,-0.1
2023-01-19T06:31:43.873Z,-0.18
2023-01-19T06:32:44.230Z,-0.2
2023-01-19T06:33:44.450Z,-0.28
2023-01-19T06:34:44.995Z,-0.28
2023-01-19T06:35:44.941Z,-0.2
2023-01-19T06:36:45.843Z,-0.24
2023-01-19T06:37:46.767Z,-0.21
2023-01-19T06:38:47.252Z,-0.21
2023-01-19T06:39:47.748Z,-0.21
2023-01-19T06:40:47.744Z,-0.2
2023-01-19T06:41:48.496Z,-0.2
2023-01-19T06:42:49.160Z,-0.21
2023-01-19T06:43:49.742Z,-0.18
2023-01-19T06:44:49.662Z,-0.21
2023-01-19T06:45:52.122Z,-0.24
2023-01-19T06:46:51.028Z,-0.21
2023-01-19T06:47:51.458Z,-0.2
2023-01-19T06:48:51.975Z,-0.21
2023-01-19T06:49:52.254Z,-0.26
2023-01-19T06:50:52.460Z,-0.3
2023-01-19T06:51:53.820Z,-0.3
2023-01-19T06:52:54.156Z,-0.24
2023-01-19T06:53:54.864Z,-0.23
2023-01-19T06:54:56.923Z,-0.2
2023-01-19T06:55:56.433Z,-0.2
2023-01-19T06:56:56.396Z,-0.28
2023-01-19T06:57:56.575Z,-0.2
2023-01-19T06:58:56.586Z,-0.26
2023-01-19T06:59:57.070Z,-0.18
2023-01-19T07:00:58.327Z,-0.17
2023-01-19T07:01:58.850Z,-0.24
2023-01-19T07:03:00.538Z,-0.2
2023-01-19T07:03:59.816Z,-0.24
2023-01-19T07:05:00.054Z,-0.27
2023-01-19T07:06:01.263Z,-0.23
2023-01-19T07:07:01.813Z,-0.26
2023-01-19T07:08:01.825Z,-0.24
2023-01-19T07:09:02.318Z,-0.23
2023-01-19T07:10:02.279Z,-0.21
2023-01-19T07:11:39.574Z,-0.2
2023-01-19T07:12:40.713Z,-0.05
2023-01-19T07:13:41.084Z,-0.15
2023-01-19T07:14:41.130Z,-0.06
2023-01-19T07:15:41.793Z,-0.02
2023-01-19T07:16:42.105Z,-0.05
2023-01-19T07:17:42.242Z,-0.1
2023-01-19T07:18:43.170Z,-0.06
2023-01-19T07:19:43.459Z,-0.18
2023-01-19T07:20:43.730Z,-0.2
2023-01-19T07:21:44.464Z,-0.27
2023-01-19T07:22:44.664Z,-0.24
2023-01-19T07:23:45.028Z,-0.23
2023-01-19T07:24:45.671Z,-0.28
2023-01-19T07:25:46.168Z,-0.3
2023-01-19T07:26:46.091Z,-0.24
2023-01-19T07:27:46.615Z,-0.24
2023-01-19T07:28:48.389Z,-0.23
2023-01-19T07:29:47.627Z,-0.2
2023-01-19T07:30:48.747Z,-0.28
2023-01-19T07:31:49.159Z,-0.26
2023-01-19T07:32:49.384Z,-0.23
2023-01-19T07:33:49.856Z,-0.2
2023-01-19T07:34:50.359Z,-0.18
2023-01-19T07:35:50.619Z,-0.12
2023-01-19T07:36:51.569Z,-0.15
2023-01-19T07:37:52.784Z,-0.03
2023-01-19T07:38:52.720Z,-0.09
2023-01-19T07:39:53.935Z,-0.12
2023-01-19T07:40:54.111Z,0
2023-01-19T07:41:54.410Z,-0.03
2023-01-19T07:42:54.699Z,-0.02
2023-01-19T07:43:55.702Z,-0.05
2023-01-19T07:44:56.053Z,-0.07
2023-01-19T07:45:56.034Z,0.09
2023-01-19T07:46:57.144Z,0.01
2023-01-19T07:47:57.673Z,0.06
2023-01-19T07:48:57.905Z,-0.02
2023-01-19T07:49:58.572Z,0.06
2023-01-19T07:50:58.559Z,0.12
2023-01-19T07:51:59.930Z,0.19
2023-01-19T07:53:00.834Z,0.15
2023-01-19T07:54:00.540Z,0.15
2023-01-19T07:55:00.761Z,0.13
2023-01-19T07:56:00.743Z,0.15
2023-01-19T07:57:01.693Z,0.16
2023-01-19T07:58:02.922Z,0.16
2023-01-19T07:59:03.281Z,0.15
2023-01-19T08:00:03.494Z,0.12
2023-01-19T08:01:03.418Z,0.19
2023-01-19T08:02:04.929Z,0.13
2023-01-19T08:03:05.871Z,0.11
2023-01-19T08:04:05.836Z,0.19
2023-01-19T08:05:06.291Z,0.13
2023-01-19T08:06:07.893Z,0.11
2023-01-19T08:07:08.418Z,0
2023-01-19T08:08:09.237Z,0
2023-01-19T08:09:09.903Z,0.05
2023-01-19T08:10:10.834Z,-0.06
2023-01-19T08:11:11.081Z,-0.06
2023-01-19T08:12:11.523Z,0.01
2023-01-19T08:13:11.789Z,-0.06
2023-01-19T08:14:13.844Z,0.01
2023-01-19T08:15:13.878Z,0
2023-01-19T08:16:14.778Z,0.01
2023-01-19T08:17:15.276Z,-0.07
2023-01-19T08:18:16.243Z,-0.15
2023-01-19T08:19:16.563Z,-0.09
2023-01-19T08:20:17.360Z,-0.13
2023-01-19T08:21:17.925Z,-0.26
2023-01-19T08:22:18.224Z,-0.21
2023-01-19T08:23:18.879Z,-0.26
2023-01-19T08:24:19.224Z,-0.23
2023-01-19T08:25:19.275Z,-0.24
2023-01-19T08:26:20.579Z,-0.27
2023-01-19T08:27:20.806Z,-0.21
2023-01-19T08:28:21.722Z,-0.23
2023-01-19T08:29:21.721Z,-0.21
2023-01-19T08:30:21.940Z,-0.21
2023-01-19T08:31:27.954Z,-0.23
2023-01-19T08:32:23.426Z,-0.28
2023-01-19T08:33:23.818Z,-0.24
2023-01-19T08:34:24.759Z,-0.31
2023-01-19T08:35:24.713Z,-0.24
2023-01-19T08:36:24.968Z,-0.26
2023-01-19T08:37:25.459Z,-0.24
2023-01-19T08:38:26.384Z,-0.27
2023-01-19T08:39:26.874Z,-0.24
2023-01-19T08:40:26.844Z,-0.31
2023-01-19T08:41:27.111Z,-0.38
2023-01-19T08:42:28.421Z,-0.33
2023-01-19T08:43:28.314Z,-0.35
2023-01-19T08:44:29.507Z,-0.41
2023-01-19T08:45:29.369Z,-0.33
2023-01-19T08:46:29.873Z,-0.28
2023-01-19T08:47:30.483Z,-0.26
2023-01-19T08:48:30.863Z,-0.24
2023-01-19T08:49:31.938Z,-0.23
2023-01-19T08:50:31.723Z,-0.18
2023-01-19T08:51:31.809Z,-0.21
2023-01-19T08:52:33.235Z,-0.28
2023-01-19T08:53:33.452Z,-0.18
2023-01-19T08:54:34.683Z,-0.24
2023-01-19T08:55:34.629Z,-0.21
2023-01-19T08:56:35.573Z,-0.18
2023-01-19T08:57:36.865Z,-0.2
2023-01-19T08:58:37.121Z,-0.21
2023-01-19T08:59:37.823Z,-0.27
2023-01-19T09:00:38.074Z,-0.2
2023-01-19T09:01:39.315Z,-0.18
2023-01-19T09:02:39.149Z,-0.1
2023-01-19T09:03:39.363Z,-0.13
2023-01-19T09:04:39.781Z,-0.09
2023-01-19T09:05:39.841Z,-0.02
2023-01-19T09:06:40.528Z,0.05
2023-01-19T09:07:41.540Z,0.01
2023-01-19T09:08:41.909Z,0.02
2023-01-19T09:09:42.143Z,0.06
2023-01-19T09:10:43.076Z,0.05
2023-01-19T09:11:42.724Z,0.01
2023-01-19T09:12:43.963Z,0
2023-01-19T09:13:44.266Z,0.05
2023-01-19T09:14:45.301Z,-0.03
2023-01-19T09:15:45.875Z,-0.03
2023-01-19T09:16:46.179Z,-0.03
2023-01-19T09:17:46.687Z,0
2023-01-19T09:18:47.676Z,-0.09
2023-01-19T09:19:48.237Z,-0.09
2023-01-19T09:20:48.879Z,-0.05
2023-01-19T09:21:49.433Z,-0.05
2023-01-19T09:22:50.192Z,0.02
2023-01-19T09:23:50.409Z,0
2023-01-19T09:24:50.659Z,0.12
2023-01-19T09:25:51.983Z,0.12
2023-01-19T09:26:52.215Z,0.27
2023-01-19T09:27:52.457Z,0.19
2023-01-19T09:28:53.395Z,0.19
2023-01-19T09:29:54.331Z,0.27
2023-01-19T09:30:55.093Z,0.23
2023-01-19T09:31:54.808Z,0.3
2023-01-19T09:32:55.607Z,0.3
2023-01-19T09:33:55.959Z,0.39
2023-01-19T09:34:57.264Z,0.49
2023-01-19T09:35:57.893Z,0.42
2023-01-19T09:36:58.488Z,0.58
2023-01-19T09:37:58.738Z,0.56
2023-01-19T09:38:59.063Z,0.61
2023-01-19T09:39:59.909Z,0.63
2023-01-19T09:41:00.209Z,0.56
2023-01-19T09:42:01.141Z,0.66
2023-01-19T09:43:01.952Z,0.71
2023-01-19T09:44:02.446Z,0.77
2023-01-19T09:45:02.534Z,0.84
2023-01-19T09:46:03.549Z,0.78
2023-01-19T09:47:03.306Z,0.86
2023-01-19T09:48:04.674Z,0.81
2023-01-19T09:49:04.798Z,0.89
2023-01-19T09:50:05.649Z,0.89
2023-01-19T09:51:06.077Z,0.99
2023-01-19T09:52:06.675Z,0.96
2023-01-19T09:53:07.625Z,1
2023-01-19T09:54:08.307Z,0.96
2023-01-19T09:55:08.254Z,1.13
2023-01-19T09:56:08.513Z,1.03
2023-01-19T09:57:09.181Z,1.03
2023-01-19T09:58:09.802Z,1.14
2023-01-19T09:59:11.012Z,1.2
2023-01-19T10:00:10.982Z,1.14
2023-01-19T10:01:11.779Z,1.1
2023-01-19T10:02:12.583Z,1.21
2023-01-19T10:03:13.151Z,1.24
2023-01-19T10:04:13.555Z,1.24
2023-01-19T10:05:13.862Z,1.28
2023-01-19T10:06:14.179Z,1.34
2023-01-19T10:07:14.447Z,1.39
2023-01-19T10:08:15.396Z,1.45
2023-01-19T10:09:16.030Z,1.56
2023-01-19T10:10:16.411Z,1.53
2023-01-19T10:11:16.913Z,1.42
2023-01-19T10:12:20.076Z,1.42
2023-01-19T10:13:18.263Z,1.48
2023-01-19T10:14:19.390Z,1.42
2023-01-19T10:15:20.384Z,1.43
2023-01-19T10:16:20.981Z,1.38
2023-01-19T10:17:21.380Z,1.42
2023-01-19T10:18:21.902Z,1.28
2023-01-19T10:19:22.895Z,1.3
2023-01-19T10:20:23.419Z,1.28
2023-01-19T10:21:24.408Z,1.28
2023-01-19T10:22:25.507Z,1.39
2023-01-19T10:23:26.029Z,1.42
2023-01-19T10:24:26.282Z,1.46
2023-01-19T10:25:27.662Z,1.39
2023-01-19T10:26:27.972Z,1.48
2023-01-19T10:27:27.660Z,1.6
2023-01-19T10:28:28.712Z,1.52
2023-01-19T10:29:29.029Z,1.61
2023-01-19T10:30:29.283Z,1.75
2023-01-19T10:31:30.337Z,1.68
2023-01-19T10:32:30.706Z,1.71
2023-01-19T10:33:31.184Z,1.74
2023-01-19T10:34:32.509Z,1.78
2023-01-19T10:35:33.120Z,1.79
2023-01-19T10:36:33.719Z,1.79
2023-01-19T10:37:34.445Z,1.79
2023-01-19T10:38:34.679Z,1.81
2023-01-19T10:39:38.990Z,1.75
2023-01-19T10:40:35.515Z,1.82
2023-01-19T10:41:35.463Z,1.89
2023-01-19T10:42:36.094Z,1.88
2023-01-19T10:43:36.232Z,1.97
2023-01-19T10:44:36.706Z,2.01
2023-01-19T10:45:37.671Z,2.08
2023-01-19T10:46:39.085Z,2.15
2023-01-19T10:47:39.816Z,2.23
2023-01-19T10:48:40.945Z,2.36
2023-01-19T10:49:41.763Z,2.39
2023-01-19T10:50:42.177Z,2.22
2023-01-19T10:51:42.617Z,2.32
2023-01-19T10:52:43.456Z,2.41
2023-01-19T10:53:44.306Z,2.34
2023-01-19T10:54:44.392Z,2.37
2023-01-19T10:55:45.385Z,2.32
2023-01-19T10:56:45.946Z,2.39
2023-01-19T10:57:46.776Z,2.44
2023-01-19T10:58:47.862Z,2.41
2023-01-19T10:59:48.244Z,2.39
2023-01-19T11:00:49.176Z,2.41
2023-01-19T11:01:49.575Z,2.5
2023-01-19T11:02:49.999Z,2.51
2023-01-19T11:03:50.840Z,2.47
2023-01-19T11:04:51.167Z,2.47
2023-01-19T11:05:51.555Z,2.41
2023-01-19T11:06:51.787Z,2.4
2023-01-19T11:07:52.063Z,2.44
2023-01-19T11:08:52.684Z,2.43
2023-01-19T11:09:53.502Z,2.4
2023-01-19T11:10:55.316Z,2.39
2023-01-19T11:11:55.546Z,2.5
2023-01-19T11:12:55.751Z,2.41
2023-01-19T11:13:55.705Z,2.44
2023-01-19T11:14:56.891Z,2.51
2023-01-19T11:15:56.827Z,2.51
2023-01-19T11:16:58.141Z,2.43
2023-01-19T11:17:58.377Z,2.4
2023-01-19T11:18:59.290Z,2.36
2023-01-19T11:20:00.300Z,2.33
2023-01-19T11:21:00.586Z,2.25
2023-01-19T11:22:01.812Z,2.14
2023-01-19T11:23:02.822Z,2.16
2023-01-19T11:24:02.797Z,2.12
2023-01-19T11:25:03.288Z,2.1
2023-01-19T11:26:03.260Z,2.04
2023-01-19T11:27:04.183Z,2.03
2023-01-19T11:28:04.692Z,2
2023-01-19T11:29:05.209Z,2.15
2023-01-19T11:30:05.136Z,2.1
2023-01-19T11:31:06.205Z,2.12
2023-01-19T11:32:06.465Z,2.25
2023-01-19T11:33:07.341Z,2.22
2023-01-19T11:34:07.927Z,2.32
2023-01-19T11:35:08.174Z,2.36
2023-01-19T11:36:09.403Z,2.34
2023-01-19T11:37:10.025Z,2.39
2023-01-19T11:38:10.628Z,2.4
2023-01-19T11:39:11.127Z,2.46
2023-01-19T11:40:14.803Z,2.43
2023-01-19T11:41:13.014Z,2.4
2023-01-19T11:42:13.024Z,2.4
2023-01-19T11:43:13.341Z,2.28
2023-01-19T11:44:13.708Z,2.39
2023-01-19T11:45:13.973Z,2.33
2023-01-19T11:46:14.267Z,2.36
2023-01-19T11:47:14.519Z,2.3
2023-01-19T11:48:15.162Z,2.4
2023-01-19T11:49:16.118Z,2.33
2023-01-19T11:50:16.525Z,2.37
2023-01-19T11:51:16.936Z,2.32
2023-01-19T11:52:16.943Z,2.4
2023-01-19T11:53:17.484Z,2.25
2023-01-19T11:54:17.825Z,2.32
2023-01-19T11:55:18.100Z,2.33
2023-01-19T11:56:18.027Z,2.39
2023-01-19T11:57:18.939Z,2.43
2023-01-19T11:58:19.866Z,2.37
2023-01-19T11:59:20.409Z,2.37
2023-01-19T12:00:20.877Z,2.41
2023-01-19T12:01:21.300Z,2.47
2023-01-19T12:02:22.288Z,2.5
2023-01-19T12:03:22.662Z,2.43
2023-01-19T12:04:23.604Z,2.51
2023-01-19T12:05:24.219Z,2.44
2023-01-19T12:06:24.602Z,2.47
2023-01-19T12:07:24.585Z,2.47
2023-01-19T12:08:24.856Z,2.55
2023-01-19T12:09:25.521Z,2.57
2023-01-19T12:10:26.070Z,2.54
2023-01-19T12:11:26.318Z,2.58
2023-01-19T12:12:26.864Z,2.54
2023-01-19T12:13:27.403Z,2.52
2023-01-19T12:14:27.736Z,2.47
2023-01-19T12:15:28.018Z,2.4
2023-01-19T12:16:28.353Z,2.4
2023-01-19T12:17:29.036Z,2.3
2023-01-19T12:18:29.010Z,2.23
2023-01-19T12:19:29.249Z,2.26
2023-01-19T12:20:29.973Z,2.32
2023-01-19T12:21:30.488Z,2.22
2023-01-19T12:22:31.009Z,2.28
2023-01-19T12:23:31.283Z,2.26
2023-01-19T12:24:32.693Z,2.25
2023-01-19T12:25:33.018Z,2.23
2023-01-19T12:26:33.500Z,2.15
2023-01-19T12:27:34.046Z,2.15
2023-01-19T12:28:34.274Z,2.14
2023-01-19T12:29:34.238Z,2.12
2023-01-19T12:30:35.350Z,2.26
2023-01-19T12:31:36.148Z,2.25
2023-01-19T12:32:35.953Z,2.28
2023-01-19T12:33:36.202Z,2.23
2023-01-19T12:34:36.886Z,2.25
2023-01-19T12:35:36.852Z,2.23
2023-01-19T12:36:37.803Z,2.26
2023-01-19T12:37:37.877Z,2.23
2023-01-19T12:38:38.556Z,2.22
2023-01-19T12:39:38.833Z,2.23
2023-01-19T12:40:39.479Z,2.3
2023-01-19T12:41:40.133Z,2.36
2023-01-19T12:42:41.657Z,2.37
2023-01-19T12:43:42.216Z,2.34
2023-01-19T12:44:42.517Z,2.47
2023-01-19T12:45:42.769Z,2.5
2023-01-19T12:46:42.856Z,2.54
2023-01-19T12:47:43.642Z,2.51
2023-01-19T12:48:44.650Z,2.57
2023-01-19T12:49:44.626Z,2.58
2023-01-19T12:50:45.846Z,2.55
2023-01-19T12:51:46.851Z,2.58
2023-01-19T12:52:47.120Z,2.5
2023-01-19T12:53:47.381Z,2.52
2023-01-19T12:54:48.167Z,2.57
2023-01-19T12:55:48.148Z,2.55
2023-01-19T12:56:48.224Z,2.57
2023-01-19T12:57:49.442Z,2.62
2023-01-19T12:58:50.110Z,2.68
2023-01-19T12:59:50.387Z,2.64
2023-01-19T13:00:51.077Z,2.7
2023-01-19T13:01:51.613Z,2.72
2023-01-19T13:02:52.183Z,2.68
2023-01-19T13:03:52.525Z,2.76
2023-01-19T13:04:53.242Z,2.68
2023-01-19T13:05:54.372Z,2.7
2023-01-19T13:06:54.654Z,2.73
2023-01-19T13:07:55.314Z,2.75
2023-01-19T13:08:55.861Z,2.69
2023-01-19T13:09:56.064Z,2.65
2023-01-19T13:10:56.629Z,2.69
2023-01-19T13:12:06.629Z,2.58
2023-01-19T13:12:57.581Z,2.58
2023-01-19T13:13:58.224Z,2.44
2023-01-19T13:14:59.671Z,2.47
2023-01-19T13:16:01.751Z,2.47
2023-01-19T13:17:00.160Z,2.37
2023-01-19T13:18:00.835Z,2.32
2023-01-19T13:19:02.074Z,2.33
2023-01-19T13:20:02.361Z,2.32
2023-01-19T13:21:02.784Z,2.32
2023-01-19T13:22:04.204Z,2.23